Time;durP1;ratioP1;P1;durP2;ratioP2;P2;SDS_P1;SDS_P2;PMS_P1;PMS_P2;Temp;Humidity;BMP_temperature;BMP_pressure;BME280_temperature;BME280_humidity;BME280_pressure;Samples;Min_cycle;Max_cycle;Signal;HPM_P1;HPM_P2
2022/08/24 00:03:56;;;;;;;4.10;1.30;;;;;;;-147.53;100.00;57128.34;10548371;28;20043;-74
2022/08/24 00:09:00;;;;;;;5.28;1.60;;;;;;;-147.53;100.00;57128.34;10552080;28;20054;-75
2022/08/24 00:14:01;;;;;;;7.70;1.48;;;;;;;-147.53;100.00;57128.34;10548152;28;20134;-75
2022/08/24 00:19:04;;;;;;;5.50;1.83;;;;;;;-147.53;100.00;57128.34;10552005;28;20044;-75
2022/08/24 00:24:05;;;;;;;4.75;1.38;;;;;;;-147.53;100.00;57128.34;10545520;28;20100;-75
2022/08/24 00:29:07;;;;;;;7.35;1.27;;;;;;;-147.53;100.00;57128.34;10545545;28;20048;-75
2022/08/24 00:34:09;;;;;;;4.50;1.50;;;;;;;-147.53;100.00;57128.34;10546689;28;20044;-75
2022/08/24 00:39:11;;;;;;;5.30;1.70;;;;;;;-147.53;100.00;57128.34;10543411;28;20422;-75
2022/08/24 00:44:15;;;;;;;4.78;1.20;;;;;;;-147.53;100.00;57128.34;10528251;28;20052;-75
2022/08/24 00:49:29;;;;;;;4.63;1.30;;;;;;;-147.53;100.00;57128.34;10550937;28;20123;-75
2022/08/24 00:54:35;;;;;;;4.63;1.48;;;;;;;-147.53;100.00;57128.34;10545155;28;20479;-75
2022/08/24 00:59:42;;;;;;;2.92;1.20;;;;;;;-147.53;100.00;57128.34;10537930;28;20055;-75
2022/08/24 01:04:59;;;;;;;3.22;1.30;;;;;;;-147.53;100.00;57128.34;10546255;28;20127;-75
2022/08/24 01:10:06;;;;;;;3.05;1.35;;;;;;;-147.53;100.00;57128.34;10544959;28;20131;-75
2022/08/24 01:15:09;;;;;;;6.53;1.42;;;;;;;-147.53;100.00;57128.34;10520665;28;20056;-75
2022/08/24 01:20:12;;;;;;;6.68;1.88;;;;;;;-147.53;100.00;57128.34;10522516;28;20574;-75
2022/08/24 01:25:14;;;;;;;4.93;1.45;;;;;;;-147.53;100.00;57128.34;10527655;28;20465;-75
2022/08/24 01:30:17;;;;;;;8.55;1.38;;;;;;;-147.53;100.00;57128.34;10543401;28;20538;-75
2022/08/24 01:35:22;;;;;;;7.20;1.23;;;;;;;-147.53;100.00;57128.34;10546318;28;20040;-75
2022/08/24 01:40:32;;;;;;;2.03;1.25;;;;;;;-147.53;100.00;57128.34;10531746;28;20499;-75
2022/08/24 01:45:34;;;;;;;2.85;1.25;;;;;;;-147.53;100.00;57128.34;10515426;28;20042;-75
2022/08/24 01:50:38;;;;;;;9.63;1.60;;;;;;;-147.53;100.00;57128.34;10524487;28;20138;-74
2022/08/24 01:55:42;;;;;;;2.17;1.20;;;;;;;-147.53;100.00;57128.34;10527854;28;20043;-75
2022/08/24 02:00:44;;;;;;;7.20;1.55;;;;;;;-147.53;100.00;57128.34;10540181;28;20044;-75
2022/08/24 02:05:47;;;;;;;4.90;1.30;;;;;;;-147.53;100.00;57128.34;10527039;28;20040;-74
2022/08/24 02:10:49;;;;;;;3.75;1.50;;;;;;;-147.53;100.00;57128.34;10524526;28;20036;-75
2022/08/24 02:15:57;;;;;;;3.87;1.20;;;;;;;-147.53;100.00;57128.34;10535917;28;20048;-75
2022/08/24 02:21:02;;;;;;;5.45;1.33;;;;;;;-147.53;100.00;57128.34;10520231;28;20060;-75
2022/08/24 02:26:07;;;;;;;3.83;1.42;;;;;;;-147.53;100.00;57128.34;10544255;28;20126;-75
2022/08/24 02:31:11;;;;;;;11.57;1.98;;;;;;;-147.53;100.00;57128.34;10530546;28;20058;-74
2022/08/24 02:36:14;;;;;;;6.00;1.58;;;;;;;-147.53;100.00;57128.34;10526975;28;20737;-75
2022/08/24 02:41:30;;;;;;;3.63;1.50;;;;;;;-147.53;100.00;57128.34;10536317;28;20047;-75
2022/08/24 02:46:32;;;;;;;10.90;3.38;;;;;;;-147.53;100.00;57128.34;10535527;28;20046;-75
2022/08/24 02:51:35;;;;;;;7.68;1.85;;;;;;;-147.53;100.00;57128.34;10518476;28;20074;-74
2022/08/24 02:56:46;;;;;;;4.40;1.63;;;;;;;-147.53;100.00;57128.34;10526559;28;20134;-75
2022/08/24 03:01:48;;;;;;;4.85;1.80;;;;;;;-147.53;100.00;57128.34;10536658;28;20295;-75
2022/08/24 03:06:51;;;;;;;4.65;1.80;;;;;;;-147.53;100.00;57128.34;10528269;28;20040;-75
2022/08/24 03:11:54;;;;;;;4.05;1.63;;;;;;;-147.53;100.00;57128.34;10524662;28;20539;-75
2022/08/24 03:16:56;;;;;;;4.25;1.40;;;;;;;-147.53;100.00;57128.34;10521507;28;20035;-75
2022/08/24 03:21:58;;;;;;;8.60;1.88;;;;;;;-147.53;100.00;57128.34;10531852;28;20048;-74
2022/08/24 03:26:59;;;;;;;11.25;1.70;;;;;;;-147.53;100.00;57128.34;10530616;28;20554;-75
2022/08/24 03:32:03;;;;;;;4.75;1.75;;;;;;;-147.53;100.00;57128.34;10529007;28;20522;-75
2022/08/24 03:37:05;;;;;;;3.85;1.52;;;;;;;-147.53;100.00;57128.34;10539933;28;20053;-75
2022/08/24 03:42:07;;;;;;;7.15;1.83;;;;;;;-147.53;100.00;57128.34;10535554;28;20048;-75
2022/08/24 03:47:10;;;;;;;6.97;1.60;;;;;;;-147.53;100.00;57128.34;10531628;28;20161;-76
2022/08/24 03:52:12;;;;;;;7.22;1.50;;;;;;;-147.53;100.00;57128.34;10530512;28;20048;-76
2022/08/24 03:57:16;;;;;;;5.32;1.55;;;;;;;-147.53;100.00;57128.34;10527813;28;20035;-76
2022/08/24 04:02:18;;;;;;;5.60;1.77;;;;;;;-147.53;100.00;57128.34;10546038;28;20043;-76
2022/08/24 04:07:20;;;;;;;7.18;2.00;;;;;;;-147.53;100.00;57128.34;10528334;28;20040;-75
2022/08/24 04:12:22;;;;;;;7.20;1.83;;;;;;;-147.53;100.00;57128.34;10524117;28;20048;-76
2022/08/24 04:17:24;;;;;;;6.95;1.80;;;;;;;-147.53;100.00;57128.34;10545338;28;20055;-75
2022/08/24 04:22:28;;;;;;;5.82;1.90;;;;;;;-147.53;100.00;57128.34;10531461;28;20062;-76
2022/08/24 04:27:30;;;;;;;6.97;1.80;;;;;;;-147.53;100.00;57128.34;10549175;28;20523;-75
2022/08/24 04:32:31;;;;;;;5.35;2.10;;;;;;;-147.53;100.00;57128.34;10526298;28;20123;-77
2022/08/24 04:37:33;;;;;;;7.20;1.92;;;;;;;-147.53;100.00;57128.34;10533184;28;20031;-75
2022/08/24 04:42:36;;;;;;;4.07;2.03;;;;;;;-147.53;100.00;57128.34;10547674;28;20139;-76
2022/08/24 04:47:38;;;;;;;7.57;1.92;;;;;;;-147.53;100.00;57128.34;10532868;28;20031;-76
2022/08/24 04:52:40;;;;;;;7.75;1.77;;;;;;;-147.53;100.00;57128.34;10547663;28;20035;-76
2022/08/24 04:57:43;;;;;;;6.72;2.20;;;;;;;-147.53;100.00;57128.34;10509498;28;20064;-75
2022/08/24 05:02:44;;;;;;;5.95;1.98;;;;;;;-147.53;100.00;57128.34;10538884;28;20044;-76
2022/08/24 05:07:47;;;;;;;5.32;1.80;;;;;;;-147.53;100.00;57128.34;10524845;28;20402;-76
2022/08/24 05:12:48;;;;;;;8.90;2.03;;;;;;;-147.53;100.00;57128.34;10517893;28;20032;-76
2022/08/24 05:17:51;;;;;;;6.20;2.00;;;;;;;-147.53;100.00;57128.34;10539834;28;20101;-76
2022/08/24 05:22:53;;;;;;;3.88;1.90;;;;;;;-147.53;100.00;57128.34;10541276;28;20051;-76
2022/08/24 05:27:57;;;;;;;9.63;2.65;;;;;;;-147.53;100.00;57128.34;10535716;28;20040;-74
2022/08/24 05:32:59;;;;;;;8.10;2.13;;;;;;;-147.53;100.00;57128.34;10544809;28;20040;-74
2022/08/24 05:38:02;;;;;;;6.18;2.05;;;;;;;-147.53;100.00;57128.34;10531886;28;20036;-75
2022/08/24 05:43:07;;;;;;;11.52;2.17;;;;;;;-147.53;100.00;57128.34;10546351;28;20127;-74
2022/08/24 05:48:10;;;;;;;7.13;2.33;;;;;;;-147.53;100.00;57128.34;10528482;28;20385;-74
2022/08/24 05:53:41;;;;;;;6.38;2.30;;;;;;;-147.53;100.00;57128.34;10530025;28;20043;-74
2022/08/24 05:58:43;;;;;;;8.38;2.35;;;;;;;-147.53;100.00;57128.34;10528883;28;20044;-75
2022/08/24 06:03:45;;;;;;;13.93;2.55;;;;;;;-147.53;100.00;57128.34;10547651;28;20035;-75
2022/08/24 06:08:51;;;;;;;5.90;2.30;;;;;;;-147.53;100.00;57128.34;10529147;28;20040;-75
2022/08/24 06:13:56;;;;;;;7.10;2.90;;;;;;;-147.53;100.00;57128.34;10540529;28;20051;-75
2022/08/24 06:19:01;;;;;;;6.80;1.85;;;;;;;-147.53;100.00;57128.34;10529720;28;20036;-75
2022/08/24 06:24:05;;;;;;;8.45;2.55;;;;;;;-147.53;100.00;57128.34;10529900;28;20050;-75
2022/08/24 06:29:07;;;;;;;8.93;2.33;;;;;;;-147.53;100.00;57128.34;10526958;28;20869;-75
2022/08/24 06:34:18;;;;;;;8.15;2.42;;;;;;;-147.53;100.00;57128.34;10548321;28;20495;-75
2022/08/24 06:39:19;;;;;;;7.47;2.00;;;;;;;-147.53;100.00;57128.34;10510866;28;20036;-75
2022/08/24 06:44:22;;;;;;;5.03;1.98;;;;;;;-147.53;100.00;57128.34;10529829;28;20046;-75
2022/08/24 06:49:36;;;;;;;6.53;2.63;;;;;;;-147.53;100.00;57128.34;10523399;28;20063;-75
2022/08/24 06:54:37;;;;;;;6.68;2.20;;;;;;;-147.53;100.00;57128.34;10528278;28;20059;-74
2022/08/24 06:59:41;;;;;;;5.30;2.10;;;;;;;-147.53;100.00;57128.34;10531309;28;20036;-74
2022/08/24 07:04:44;;;;;;;6.07;2.00;;;;;;;-147.53;100.00;57128.34;10550258;28;20040;-74
2022/08/24 07:10:12;;;;;;;8.18;2.40;;;;;;;-147.53;100.00;57128.34;10507699;28;20147;-74
2022/08/24 07:15:14;;;;;;;6.72;1.75;;;;;;;-147.53;100.00;57128.34;10532734;28;20044;-74
2022/08/24 07:20:20;;;;;;;6.90;1.98;;;;;;;-147.53;100.00;57128.34;10528738;28;20698;-75
2022/08/24 07:25:40;;;;;;;7.25;2.40;;;;;;;-147.53;100.00;57128.34;10534652;28;20088;-74
2022/08/24 07:30:49;;;;;;;6.75;2.05;;;;;;;-147.53;100.00;57128.34;10532402;28;20518;-73
2022/08/24 07:35:51;;;;;;;5.97;1.95;;;;;;;-147.53;100.00;57128.34;10543255;28;20043;-77
2022/08/24 07:40:59;;;;;;;8.45;1.60;;;;;;;-147.53;100.00;57128.34;10532885;28;20053;-75
2022/08/24 07:46:21;;;;;;;10.00;1.92;;;;;;;-147.53;100.00;57128.34;10528241;28;20058;-75
2022/08/24 07:51:26;;;;;;;11.82;2.05;;;;;;;-147.53;100.00;57128.34;10539622;28;20700;-75
2022/08/24 07:56:27;;;;;;;3.45;1.70;;;;;;;-147.53;100.00;57128.34;10530481;28;20040;-75
2022/08/24 08:01:32;;;;;;;6.97;2.13;;;;;;;-147.53;100.00;57128.34;10525825;28;20043;-75
2022/08/24 08:06:34;;;;;;;6.38;1.70;;;;;;;-147.53;100.00;57128.34;10536775;28;20036;-76
2022/08/24 08:11:36;;;;;;;6.63;1.50;;;;;;;-147.53;100.00;57128.34;10534763;28;20067;-75
2022/08/24 08:16:38;;;;;;;8.82;1.65;;;;;;;-147.53;100.00;57128.34;10553173;28;20040;-75
2022/08/24 08:27:11;;;;;;;6.15;2.10;;;;;;;-147.53;100.00;57128.34;10544182;28;20075;-75
2022/08/24 08:32:16;;;;;;;7.53;2.00;;;;;;;-147.53;100.00;57128.34;10520732;28;20411;-76
2022/08/24 08:37:18;;;;;;;7.45;1.80;;;;;;;-147.53;100.00;57128.34;10524187;28;20089;-76
2022/08/24 08:42:27;;;;;;;6.30;2.40;;;;;;;-147.53;100.00;57128.34;10530263;28;20040;-76
2022/08/24 08:47:56;;;;;;;4.68;1.85;;;;;;;-147.53;100.00;57128.34;10529622;28;20042;-76
2022/08/24 08:53:29;;;;;;;9.40;1.92;;;;;;;-147.53;100.00;57128.34;10522940;28;20043;-77
2022/08/24 08:58:54;;;;;;;6.97;1.80;;;;;;;-147.53;100.00;57128.34;10524221;28;20085;-74
2022/08/24 09:04:38;;;;;;;7.25;1.67;;;;;;;-147.53;100.00;57128.34;10536616;28;20079;-74
2022/08/24 09:10:01;;;;;;;8.57;1.65;;;;;;;-147.53;100.00;57128.34;10503710;28;20039;-70
2022/08/24 09:15:20;;;;;;;4.15;1.90;;;;;;;-147.53;100.00;57128.34;10492562;28;20072;-71
2022/08/24 09:20:46;;;;;;;5.17;1.67;;;;;;;-147.53;100.00;57128.34;10516219;28;20495;-71
2022/08/24 09:26:22;;;;;;;8.10;2.00;;;;;;;-147.53;100.00;57128.34;10536578;28;20131;-70
2022/08/24 09:32:12;;;;;;;3.25;1.42;;;;;;;-147.53;100.00;57128.34;10536809;28;20415;-71
2022/08/24 09:37:29;;;;;;;8.52;1.92;;;;;;;-147.53;100.00;57128.34;10529718;28;20124;-71
2022/08/24 09:42:46;;;;;;;6.97;1.80;;;;;;;-147.53;100.00;57128.34;10527219;28;20109;-71
2022/08/24 09:48:05;;;;;;;9.18;2.17;;;;;;;-147.53;100.00;57128.34;10526158;28;20043;-70
2022/08/24 09:53:45;;;;;;;7.35;1.92;;;;;;;-147.53;100.00;57128.34;10495169;28;20063;-71
2022/08/24 09:59:01;;;;;;;8.02;2.05;;;;;;;-147.53;100.00;57128.34;10505015;28;20036;-70
2022/08/24 10:04:16;;;;;;;7.00;2.10;;;;;;;-147.53;100.00;57128.34;10498556;28;20086;-72
2022/08/24 10:09:43;;;;;;;5.07;2.03;;;;;;;-147.53;100.00;57128.34;10514765;28;20044;-70
2022/08/24 10:14:50;;;;;;;7.03;1.65;;;;;;;-147.53;100.00;57128.34;10509567;28;20036;-70
2022/08/24 10:20:03;;;;;;;6.07;1.90;;;;;;;-147.53;100.00;57128.34;10527473;28;20123;-71
2022/08/24 10:25:25;;;;;;;4.25;1.85;;;;;;;-147.53;100.00;57128.34;10512155;28;20040;-71
2022/08/24 10:30:44;;;;;;;5.88;2.20;;;;;;;-147.53;100.00;57128.34;10513545;28;20048;-72
2022/08/24 10:36:06;;;;;;;4.30;1.90;;;;;;;-147.53;100.00;57128.34;10525640;28;20483;-71
2022/08/24 10:41:46;;;;;;;4.10;1.77;;;;;;;-147.53;100.00;57128.34;10529999;28;20046;-71
2022/08/24 10:46:51;;;;;;;4.30;1.65;;;;;;;-147.53;100.00;57128.34;10507606;28;20055;-72
2022/08/24 10:52:36;;;;;;;8.00;1.80;;;;;;;-147.53;100.00;57128.34;10497533;28;20074;-71
2022/08/24 10:57:47;;;;;;;8.93;2.10;;;;;;;-147.53;100.00;57128.34;10520161;28;20139;-71
2022/08/24 11:03:06;;;;;;;8.32;1.83;;;;;;;-147.53;100.00;57128.34;10514458;28;20138;-71
2022/08/24 11:08:16;;;;;;;5.10;1.67;;;;;;;-147.53;100.00;57128.34;10511967;28;20054;-72
2022/08/24 11:13:24;;;;;;;5.10;1.70;;;;;;;-147.53;100.00;57128.34;10513691;28;20131;-72
2022/08/24 11:18:51;;;;;;;8.32;1.63;;;;;;;-147.53;100.00;57128.34;10504362;28;20036;-71
2022/08/24 11:23:53;;;;;;;6.50;1.40;;;;;;;-147.53;100.00;57128.34;10531951;28;20131;-72
2022/08/24 11:28:59;;;;;;;4.80;1.92;;;;;;;-147.53;100.00;57128.34;10521631;28;20420;-72
2022/08/24 11:34:08;;;;;;;3.53;1.90;;;;;;;-147.53;100.00;57128.34;10535541;28;20761;-72
2022/08/24 11:39:24;;;;;;;5.82;1.92;;;;;;;-147.53;100.00;57128.34;10508242;28;20523;-72
2022/08/24 11:44:41;;;;;;;5.55;1.85;;;;;;;-147.53;100.00;57128.34;10501366;28;20661;-71
2022/08/24 11:50:05;;;;;;;12.25;1.83;;;;;;;-147.53;100.00;57128.34;10497900;28;20052;-72
2022/08/24 11:55:24;;;;;;;10.35;1.90;;;;;;;-147.53;100.00;57128.34;10508383;28;20574;-72
2022/08/24 12:00:50;;;;;;;9.68;1.67;;;;;;;-147.53;100.00;57128.34;10539368;28;20449;-72
2022/08/24 12:06:10;;;;;;;8.70;1.80;;;;;;;-147.53;100.00;57128.34;10535048;28;20047;-72
2022/08/24 12:11:37;;;;;;;6.32;1.92;;;;;;;-147.53;100.00;57128.34;10524303;28;20036;-72
2022/08/24 12:16:50;;;;;;;7.25;1.60;;;;;;;-147.53;100.00;57128.34;10507816;28;20047;-72
2022/08/24 12:21:57;;;;;;;8.30;1.98;;;;;;;-147.53;100.00;57128.34;10507102;28;20162;-72
2022/08/24 12:27:10;;;;;;;7.20;1.60;;;;;;;-147.53;100.00;57128.34;10536872;28;20047;-71
2022/08/24 12:32:23;;;;;;;4.90;1.75;;;;;;;-147.53;100.00;57128.34;10529897;28;20040;-72
2022/08/24 12:37:42;;;;;;;5.97;1.80;;;;;;;-147.53;100.00;57128.34;10535681;28;20104;-71
2022/08/24 12:42:49;;;;;;;3.67;1.75;;;;;;;-147.53;100.00;57128.34;10517960;28;20122;-72
2022/08/24 12:48:03;;;;;;;3.83;1.58;;;;;;;-147.53;100.00;57128.34;10538527;28;20050;-71
2022/08/24 12:53:17;;;;;;;7.88;1.45;;;;;;;-147.53;100.00;57128.34;10520384;28;20553;-72
2022/08/24 12:58:20;;;;;;;8.95;2.03;;;;;;;-147.53;100.00;57128.34;10503732;28;20051;-72
2022/08/24 13:03:44;;;;;;;6.75;1.67;;;;;;;-147.53;100.00;57128.34;10499620;28;20044;-71
2022/08/24 13:08:50;;;;;;;7.00;1.90;;;;;;;-147.53;100.00;57128.34;10534190;28;20102;-71
2022/08/24 13:14:13;;;;;;;3.65;1.60;;;;;;;-147.53;100.00;57128.34;10534590;28;20055;-70
2022/08/24 13:19:33;;;;;;;7.13;1.88;;;;;;;-147.53;100.00;57128.34;10524976;28;20525;-71
2022/08/24 13:24:34;;;;;;;8.30;1.70;;;;;;;-147.53;100.00;57128.34;10538384;28;20039;-71
2022/08/24 13:29:39;;;;;;;3.30;1.70;;;;;;;-147.53;100.00;57128.34;10537792;28;20043;-70
2022/08/24 13:34:44;;;;;;;7.22;1.80;;;;;;;-147.53;100.00;57128.34;10542687;28;20051;-73
2022/08/24 13:40:07;;;;;;;5.38;1.73;;;;;;;-147.53;100.00;57128.34;10541515;28;20039;-72
2022/08/24 13:45:33;;;;;;;5.25;1.70;;;;;;;-147.53;100.00;57128.34;10528013;28;20143;-71
2022/08/24 13:50:49;;;;;;;3.97;1.50;;;;;;;-147.53;100.00;57128.34;10538437;28;20055;-72
2022/08/24 13:55:54;;;;;;;15.18;2.35;;;;;;;-147.53;100.00;57128.34;10521524;28;20526;-73
2022/08/24 14:01:23;;;;;;;7.80;1.80;;;;;;;-147.53;100.00;57128.34;10530757;28;20035;-72
2022/08/24 14:07:03;;;;;;;5.40;1.50;;;;;;;-147.53;100.00;57128.34;10539378;28;20564;-72
2022/08/24 14:12:20;;;;;;;7.50;1.60;;;;;;;-147.53;100.00;57128.34;10536855;28;20049;-71
2022/08/24 14:17:52;;;;;;;7.33;1.73;;;;;;;-147.53;100.00;57128.34;10533909;28;20126;-71
2022/08/24 14:23:17;;;;;;;3.72;1.65;;;;;;;-147.53;100.00;57128.34;10540657;28;20542;-71
2022/08/24 14:28:38;;;;;;;4.55;1.73;;;;;;;-147.53;100.00;57128.34;10540042;28;20411;-70
2022/08/24 14:33:50;;;;;;;4.70;1.55;;;;;;;-147.53;100.00;57128.34;10536630;28;20047;-71
2022/08/24 14:39:11;;;;;;;3.47;1.50;;;;;;;-147.53;100.00;57128.34;10490978;28;20131;-72
2022/08/24 14:44:24;;;;;;;5.35;2.35;;;;;;;-147.53;100.00;57128.34;10498571;28;20052;-71
2022/08/24 14:49:47;;;;;;;8.13;1.52;;;;;;;-147.53;100.00;57128.34;10531291;28;20043;-72
2022/08/24 14:55:07;;;;;;;9.63;1.65;;;;;;;-147.53;100.00;57128.34;10531980;28;20048;-72
2022/08/24 15:00:22;;;;;;;6.32;1.80;;;;;;;-147.53;100.00;57128.34;10544019;28;20073;-72
2022/08/24 15:05:32;;;;;;;6.15;1.85;;;;;;;-147.53;100.00;57128.34;10541177;28;20060;-73
2022/08/24 15:10:45;;;;;;;5.82;2.10;;;;;;;-147.53;100.00;57128.34;10523148;28;20047;-72
2022/08/24 15:15:56;;;;;;;5.22;2.13;;;;;;;-147.53;100.00;57128.34;10502249;28;20043;-73
2022/08/24 15:32:52;;;;;;;4.93;1.80;;;;;;;-147.53;100.00;57128.34;12217901;23;20050;-91
2022/08/24 16:02:27;;;;;;;7.30;2.03;;;;;;;-147.53;100.00;57128.34;10325272;28;20137;-89
2022/08/24 16:07:33;;;;;;;5.28;1.92;;;;;;;-147.53;100.00;57128.34;10333838;28;20129;-89
2022/08/24 16:12:36;;;;;;;5.35;1.77;;;;;;;-147.53;100.00;57128.34;10345686;28;20049;-89
2022/08/24 16:17:44;;;;;;;8.20;2.28;;;;;;;-147.53;100.00;57128.34;10373106;28;20045;-89
2022/08/24 16:22:58;;;;;;;6.50;1.73;;;;;;;-147.53;100.00;57128.34;10413459;28;20054;-90
2022/08/24 16:28:36;;;;;;;4.70;1.70;;;;;;;-147.53;100.00;57128.34;10390556;28;20043;-90
2022/08/24 16:33:44;;;;;;;7.97;1.80;;;;;;;-147.53;100.00;57128.34;10377768;28;20064;-88
2022/08/24 16:38:49;;;;;;;5.55;1.90;;;;;;;-147.53;100.00;57128.34;10397785;28;20052;-89
2022/08/24 16:43:51;;;;;;;3.63;1.55;;;;;;;-147.53;100.00;57128.34;10379647;28;20137;-89
2022/08/24 16:48:53;;;;;;;7.07;1.80;;;;;;;-147.53;100.00;57128.34;10394302;28;20081;-88
2022/08/24 16:53:55;;;;;;;3.42;1.63;;;;;;;-147.53;100.00;57128.34;10333825;28;20070;-88
2022/08/24 16:58:57;;;;;;;4.63;1.67;;;;;;;-147.53;100.00;57128.34;10359241;28;20142;-89
2022/08/24 17:04:01;;;;;;;5.30;1.95;;;;;;;-147.53;100.00;57128.34;10375993;28;20246;-92
2022/08/24 17:09:03;;;;;;;7.45;1.83;;;;;;;-147.53;100.00;57128.34;10357578;28;20050;-89
2022/08/24 17:14:05;;;;;;;11.55;2.10;;;;;;;-147.53;100.00;57128.34;10314707;28;20513;-89
2022/08/24 17:19:10;;;;;;;4.43;1.70;;;;;;;-147.53;100.00;57128.34;10307396;28;20045;-88
2022/08/24 17:24:22;;;;;;;6.72;1.90;;;;;;;-147.53;100.00;57128.34;10304545;28;20054;-88
2022/08/24 17:29:24;;;;;;;5.60;1.92;;;;;;;-147.53;100.00;57128.34;10311583;28;20054;-88
2022/08/24 17:34:29;;;;;;;6.53;1.95;;;;;;;-147.53;100.00;57128.34;10300228;28;20047;-89
2022/08/24 17:39:32;;;;;;;8.50;1.98;;;;;;;-147.53;100.00;57128.34;10320810;28;20053;-89
2022/08/24 17:44:35;;;;;;;3.45;1.60;;;;;;;-147.53;100.00;57128.34;10324476;28;20050;-88
2022/08/24 17:49:38;;;;;;;7.70;2.05;;;;;;;-147.53;100.00;57128.34;10333236;28;20064;-88
2022/08/24 17:54:40;;;;;;;3.53;1.67;;;;;;;-147.53;100.00;57128.34;10308546;28;20531;-89
2022/08/24 17:59:44;;;;;;;5.15;1.90;;;;;;;-147.53;100.00;57128.34;10329438;28;20469;-88
2022/08/24 18:04:46;;;;;;;5.90;2.15;;;;;;;-147.53;100.00;57128.34;10384909;28;20038;-88
2022/08/24 18:09:53;;;;;;;6.40;2.00;;;;;;;-147.53;100.00;57128.34;10367198;28;20151;-89
2022/08/24 18:14:55;;;;;;;3.88;1.95;;;;;;;-147.53;100.00;57128.34;10344843;28;20092;-88
2022/08/24 18:20:00;;;;;;;3.90;1.80;;;;;;;-147.53;100.00;57128.34;10360260;28;20109;-89
2022/08/24 18:25:11;;;;;;;11.82;2.63;;;;;;;-147.53;100.00;57128.34;10356762;28;20042;-88
2022/08/24 18:30:23;;;;;;;15.02;2.92;;;;;;;-147.53;100.00;57128.34;10384039;28;20041;-89
2022/08/24 18:35:33;;;;;;;14.05;2.00;;;;;;;-147.53;100.00;57128.34;10389743;28;20049;-89
2022/08/24 18:40:35;;;;;;;4.03;1.80;;;;;;;-147.53;100.00;57128.34;10383158;28;20064;-89
2022/08/24 18:45:37;;;;;;;7.32;2.10;;;;;;;-147.53;100.00;57128.34;10382496;28;20045;-89
2022/08/24 18:50:38;;;;;;;9.43;2.35;;;;;;;-147.53;100.00;57128.34;10404407;28;20050;-89
2022/08/24 18:55:45;;;;;;;11.50;2.33;;;;;;;-147.53;100.00;57128.34;10395897;28;20052;-89
2022/08/24 19:00:47;;;;;;;6.43;2.15;;;;;;;-147.53;100.00;57128.34;10397722;28;21050;-88
2022/08/24 19:05:51;;;;;;;8.05;2.33;;;;;;;-147.53;100.00;57128.34;10392768;28;20050;-88
2022/08/24 19:10:54;;;;;;;9.23;2.42;;;;;;;-147.53;100.00;57128.34;10382686;28;20050;-89
2022/08/24 19:15:56;;;;;;;9.38;2.40;;;;;;;-147.53;100.00;57128.34;10371493;28;20065;-88
2022/08/24 19:20:58;;;;;;;5.47;2.35;;;;;;;-147.53;100.00;57128.34;10374817;28;20132;-89
2022/08/24 19:26:01;;;;;;;6.70;2.72;;;;;;;-147.53;100.00;57128.34;10376788;28;20042;-88
2022/08/24 19:31:09;;;;;;;9.65;2.35;;;;;;;-147.53;100.00;57128.34;10385725;28;20125;-88
2022/08/24 19:36:12;;;;;;;8.37;2.60;;;;;;;-147.53;100.00;57128.34;10342044;28;20041;-88
2022/08/24 19:41:14;;;;;;;7.75;2.03;;;;;;;-147.53;100.00;57128.34;10352299;28;20465;-89
2022/08/24 19:46:18;;;;;;;5.82;2.28;;;;;;;-147.53;100.00;57128.34;10338744;28;20053;-88
2022/08/24 19:51:19;;;;;;;11.45;2.13;;;;;;;-147.53;100.00;57128.34;10347724;28;20065;-89
2022/08/24 19:56:21;;;;;;;6.30;2.35;;;;;;;-147.53;100.00;57128.34;10373797;28;20066;-89
2022/08/24 20:01:28;;;;;;;8.05;2.65;;;;;;;-147.53;100.00;57128.34;10367405;28;20052;-89
2022/08/24 20:06:34;;;;;;;13.35;2.28;;;;;;;-147.53;100.00;57128.34;10396618;28;20049;-89
2022/08/24 20:11:38;;;;;;;6.50;2.40;;;;;;;-147.53;100.00;57128.34;10383573;28;20490;-89
2022/08/24 20:16:40;;;;;;;9.27;2.40;;;;;;;-147.53;100.00;57128.34;10387390;28;20042;-89
2022/08/24 20:21:42;;;;;;;8.98;2.25;;;;;;;-147.53;100.00;57128.34;10389063;28;20069;-89
2022/08/24 20:26:45;;;;;;;8.68;2.55;;;;;;;-147.53;100.00;57128.34;10381587;28;20515;-89
2022/08/24 20:31:48;;;;;;;6.22;2.40;;;;;;;-147.53;100.00;57128.34;10372730;28;20044;-89
2022/08/24 20:36:52;;;;;;;4.95;2.42;;;;;;;-147.53;100.00;57128.34;10401292;28;20054;-89
2022/08/24 20:41:54;;;;;;;6.63;2.30;;;;;;;-147.53;100.00;57128.34;10378900;28;20073;-89
2022/08/24 20:46:55;;;;;;;7.72;2.22;;;;;;;-147.53;100.00;57128.34;10370043;28;20054;-89
2022/08/24 20:51:59;;;;;;;5.97;2.20;;;;;;;-147.53;100.00;57128.34;10384630;28;20647;-89
2022/08/24 20:57:01;;;;;;;10.30;2.50;;;;;;;-147.53;100.00;57128.34;10350855;28;20065;-90
2022/08/24 21:02:06;;;;;;;6.28;2.40;;;;;;;-147.53;100.00;57128.34;10346412;28;20038;-90
2022/08/24 21:07:10;;;;;;;7.57;2.55;;;;;;;-147.53;100.00;57128.34;10364768;28;20042;-90
2022/08/24 21:12:11;;;;;;;8.85;2.13;;;;;;;-147.53;100.00;57128.34;10360441;28;20041;-89
2022/08/24 21:17:13;;;;;;;6.57;2.33;;;;;;;-147.53;100.00;57128.34;10342615;28;20049;-89
2022/08/24 21:22:16;;;;;;;6.80;2.38;;;;;;;-147.53;100.00;57128.34;10333697;28;20077;-90
2022/08/24 21:27:18;;;;;;;8.55;2.70;;;;;;;-147.53;100.00;57128.34;10340064;28;20050;-90
2022/08/24 21:37:39;;;;;;;5.68;2.28;;;;;;;-147.53;100.00;57128.34;10356964;28;20038;-90
2022/08/24 21:42:41;;;;;;;3.92;2.13;;;;;;;-147.53;100.00;57128.34;10342896;28;20042;-89
2022/08/24 21:47:43;;;;;;;9.13;2.28;;;;;;;-147.53;100.00;57128.34;10343371;28;20042;-90
2022/08/24 21:52:45;;;;;;;5.88;2.20;;;;;;;-147.53;100.00;57128.34;10336686;28;20049;-90
2022/08/24 21:57:52;;;;;;;4.97;2.15;;;;;;;-147.53;100.00;57128.34;10314505;28;20061;-89
2022/08/24 22:02:53;;;;;;;8.70;2.33;;;;;;;-147.53;100.00;57128.34;10321531;28;20546;-89
2022/08/24 22:07:55;;;;;;;6.85;2.15;;;;;;;-147.53;100.00;57128.34;10325799;28;20060;-90
2022/08/24 22:12:57;;;;;;;8.05;2.20;;;;;;;-147.53;100.00;57128.34;10334174;28;20047;-89
2022/08/24 22:18:04;;;;;;;4.40;1.92;;;;;;;-147.53;100.00;57128.34;10345749;28;20130;-90
2022/08/24 22:23:06;;;;;;;5.07;2.05;;;;;;;-147.53;100.00;57128.34;10326783;28;20037;-89
2022/08/24 22:28:07;;;;;;;14.43;3.42;;;;;;;-147.53;100.00;57128.34;10348491;28;20046;-90
2022/08/24 22:33:09;;;;;;;10.07;2.78;;;;;;;-147.53;100.00;57128.34;10354214;28;20045;-89
2022/08/24 22:38:11;;;;;;;4.72;2.58;;;;;;;-147.53;100.00;57128.34;10357051;28;20041;-89
2022/08/24 22:43:13;;;;;;;8.18;2.40;;;;;;;-147.53;100.00;57128.34;10355067;28;20038;-90
2022/08/24 22:48:14;;;;;;;6.90;2.30;;;;;;;-147.53;100.00;57128.34;10358066;28;20466;-90
2022/08/24 22:53:16;;;;;;;5.68;2.13;;;;;;;-147.53;100.00;57128.34;10376337;28;20397;-90
2022/08/24 22:58:17;;;;;;;4.40;1.90;;;;;;;-147.53;100.00;57128.34;10372727;28;20038;-89
2022/08/24 23:03:19;;;;;;;8.65;2.40;;;;;;;-147.53;100.00;57128.34;10379729;28;20131;-90
2022/08/24 23:08:20;;;;;;;5.13;2.30;;;;;;;-147.53;100.00;57128.34;10401811;28;20038;-90
2022/08/24 23:13:22;;;;;;;4.10;2.20;;;;;;;-147.53;100.00;57128.34;10391404;28;20156;-90
2022/08/24 23:23:56;;;;;;;5.53;2.30;;;;;;;-147.53;100.00;57128.34;10390814;28;20589;-90
2022/08/24 23:28:59;;;;;;;4.90;2.35;;;;;;;-147.53;100.00;57128.34;10376447;28;20570;-90
2022/08/24 23:34:06;;;;;;;7.10;1.98;;;;;;;-147.53;100.00;57128.34;10388900;28;20050;-89
2022/08/24 23:39:17;;;;;;;5.93;2.10;;;;;;;-147.53;100.00;57128.34;10379660;28;20490;-90
2022/08/24 23:44:23;;;;;;;7.50;2.88;;;;;;;-147.53;100.00;57128.34;10365832;28;20463;-89
2022/08/24 23:49:26;;;;;;;9.38;2.28;;;;;;;-147.53;100.00;57128.34;10375170;28;20042;-90
2022/08/24 23:54:28;;;;;;;8.43;2.55;;;;;;;-147.53;100.00;57128.34;10387629;28;20107;-89
2022/08/24 23:59:30;;;;;;;7.72;2.70;;;;;;;-147.53;100.00;57128.34;10386726;28;20076;-90
